Time;durP1;ratioP1;P1;durP2;ratioP2;P2;SDS_P1;SDS_P2;PMS_P1;PMS_P2;Temp;Humidity;BMP_temperature;BMP_pressure;BME280_temperature;BME280_humidity;BME280_pressure;Samples;Min_cycle;Max_cycle;Signal;HPM_P1;HPM_P2
2021/08/11 00:01:12;;;;;;;;;;;23.30;49.00;;;;;;8363937;28;19956;-46
2021/08/11 00:05:13;;;;;;;;;;;23.30;48.90;;;;;;8364117;28;19921;-45
2021/08/11 00:09:13;;;;;;;;;;;23.30;48.90;;;;;;8364664;28;20382;-44
2021/08/11 00:13:14;;;;;;;;;;;23.30;48.90;;;;;;8362474;28;19929;-46
2021/08/11 00:17:14;;;;;;;;;;;23.30;48.90;;;;;;8363632;28;19917;-45
2021/08/11 00:21:14;;;;;;;;;;;23.30;48.90;;;;;;8363269;28;19917;-44
2021/08/11 00:25:15;;;;;;;;;;;23.30;49.00;;;;;;8363397;28;19925;-44
2021/08/11 00:29:15;;;;;;;;;;;23.30;49.00;;;;;;8363471;28;20301;-44
2021/08/11 00:33:16;;;;;;;;;;;23.30;49.00;;;;;;8362943;28;19921;-45
2021/08/11 00:37:16;;;;;;;;;;;23.30;49.00;;;;;;8363266;28;19983;-46
2021/08/11 00:41:17;;;;;;;;;;;23.20;48.90;;;;;;8363146;28;20366;-45
2021/08/11 00:45:17;;;;;;;;;;;23.30;49.00;;;;;;8363385;28;20362;-47
2021/08/11 00:49:18;;;;;;;;;;;23.20;49.00;;;;;;8363266;28;19917;-46
2021/08/11 00:53:22;;;;;;;;;;;23.20;49.00;;;;;;8363185;28;19987;-46
2021/08/11 00:57:24;;;;;;;;;;;23.20;49.00;;;;;;8362628;28;19927;-47
2021/08/11 01:01:26;;;;;;;;;;;23.20;49.00;;;;;;8362995;28;19913;-46
2021/08/11 01:05:27;;;;;;;;;;;23.20;49.00;;;;;;8363694;28;19913;-46
2021/08/11 01:09:28;;;;;;;;;;;23.20;49.00;;;;;;8362961;28;19921;-46
2021/08/11 01:13:29;;;;;;;;;;;23.20;49.00;;;;;;8362765;28;19943;-46
2021/08/11 01:17:29;;;;;;;;;;;23.20;49.00;;;;;;8362665;28;19913;-44
2021/08/11 01:21:38;;;;;;;;;;;23.20;49.00;;;;;;8362785;28;20348;-45
2021/08/11 01:25:43;;;;;;;;;;;23.20;49.00;;;;;;8362798;28;19917;-45
2021/08/11 01:30:22;;;;;;;;;;;23.20;49.00;;;;;;8362333;28;19931;-44
2021/08/11 01:34:43;;;;;;;;;;;23.20;49.00;;;;;;8326034;28;19917;-46
2021/08/11 01:39:03;;;;;;;;;;;23.20;49.00;;;;;;8345868;28;20296;-45
2021/08/11 01:43:05;;;;;;;;;;;23.20;49.00;;;;;;8367516;28;19962;-46
2021/08/11 01:47:07;;;;;;;;;;;23.20;49.00;;;;;;8368970;28;19924;-48
2021/08/11 01:51:08;;;;;;;;;;;23.10;49.00;;;;;;8367526;28;19925;-48
2021/08/11 01:55:09;;;;;;;;;;;23.10;49.00;;;;;;8368343;28;20377;-46
2021/08/11 01:59:09;;;;;;;;;;;23.10;49.00;;;;;;8367985;28;20004;-46
2021/08/11 02:03:10;;;;;;;;;;;23.10;49.00;;;;;;8368136;28;19921;-44
2021/08/11 02:07:12;;;;;;;;;;;23.10;49.00;;;;;;8367740;28;20255;-45
2021/08/11 02:11:13;;;;;;;;;;;23.10;49.00;;;;;;8367399;28;19925;-45
2021/08/11 02:15:13;;;;;;;;;;;23.10;49.00;;;;;;8366897;28;20345;-45
2021/08/11 02:19:14;;;;;;;;;;;23.10;49.00;;;;;;8367941;28;19999;-46
2021/08/11 02:23:14;;;;;;;;;;;23.10;49.00;;;;;;8367065;28;19932;-45
2021/08/11 02:27:17;;;;;;;;;;;23.10;49.00;;;;;;8366603;28;19917;-45
2021/08/11 02:31:40;;;;;;;;;;;23.10;49.00;;;;;;8366839;28;19988;-44
2021/08/11 02:35:46;;;;;;;;;;;23.10;49.00;;;;;;8356479;28;19923;-45
2021/08/11 02:39:49;;;;;;;;;;;23.10;49.10;;;;;;8367022;28;19913;-44
2021/08/11 02:44:05;;;;;;;;;;;23.00;49.00;;;;;;8366780;28;20352;-45
2021/08/11 02:48:07;;;;;;;;;;;23.00;49.00;;;;;;8366042;28;19963;-44
2021/08/11 02:52:08;;;;;;;;;;;23.00;49.00;;;;;;8365757;28;19925;-45
2021/08/11 02:56:08;;;;;;;;;;;23.00;49.00;;;;;;8366135;28;19928;-44
2021/08/11 03:00:09;;;;;;;;;;;23.00;49.00;;;;;;8366337;28;19913;-45
2021/08/11 03:04:10;;;;;;;;;;;23.00;49.10;;;;;;8365987;28;19939;-44
2021/08/11 03:08:10;;;;;;;;;;;23.00;49.10;;;;;;8366104;28;20358;-45
2021/08/11 03:12:11;;;;;;;;;;;23.00;49.10;;;;;;8365132;28;20333;-44
2021/08/11 03:16:12;;;;;;;;;;;23.00;49.10;;;;;;8366435;28;20385;-47
2021/08/11 03:20:13;;;;;;;;;;;23.00;49.10;;;;;;8365425;28;19963;-45
2021/08/11 03:24:13;;;;;;;;;;;22.90;49.00;;;;;;8364748;28;20393;-47
2021/08/11 03:28:14;;;;;;;;;;;23.00;49.10;;;;;;8365143;28;20289;-47
2021/08/11 03:32:15;;;;;;;;;;;22.90;49.10;;;;;;8365159;28;20369;-46
2021/08/11 03:36:17;;;;;;;;;;;22.90;49.10;;;;;;8365108;28;19913;-45
2021/08/11 03:40:18;;;;;;;;;;;22.90;49.10;;;;;;8364880;28;19917;-45
2021/08/11 03:44:18;;;;;;;;;;;22.90;49.10;;;;;;8364647;28;20389;-44
2021/08/11 03:48:19;;;;;;;;;;;22.90;49.10;;;;;;8364070;28;20074;-45
2021/08/11 03:52:19;;;;;;;;;;;22.90;49.10;;;;;;8365245;28;20266;-45
2021/08/11 03:56:19;;;;;;;;;;;22.90;49.10;;;;;;8364141;28;19940;-46
2021/08/11 04:00:20;;;;;;;;;;;22.90;49.10;;;;;;8363664;28;19952;-44
2021/08/11 04:04:21;;;;;;;;;;;22.90;49.10;;;;;;8363070;28;19980;-48
2021/08/11 04:08:21;;;;;;;;;;;22.90;49.10;;;;;;8365259;28;19920;-49
2021/08/11 04:12:21;;;;;;;;;;;22.90;49.10;;;;;;8363228;28;19925;-48
2021/08/11 04:16:22;;;;;;;;;;;22.90;49.10;;;;;;8363758;28;19993;-48
2021/08/11 04:20:22;;;;;;;;;;;22.90;49.10;;;;;;8363678;28;19928;-49
2021/08/11 04:24:23;;;;;;;;;;;22.80;49.10;;;;;;8363188;28;19924;-48
2021/08/11 04:28:25;;;;;;;;;;;22.80;49.10;;;;;;8364495;28;20003;-49
2021/08/11 04:32:26;;;;;;;;;;;22.80;49.10;;;;;;8363254;28;20024;-45
2021/08/11 04:36:26;;;;;;;;;;;22.80;49.10;;;;;;8362843;28;19920;-44
2021/08/11 04:40:26;;;;;;;;;;;22.80;49.10;;;;;;8363366;28;19951;-45
2021/08/11 04:44:27;;;;;;;;;;;22.80;49.10;;;;;;8363869;28;19913;-45
2021/08/11 04:48:27;;;;;;;;;;;22.80;49.10;;;;;;8362806;28;19917;-45
2021/08/11 04:52:28;;;;;;;;;;;22.80;49.10;;;;;;8363174;28;19932;-46
2021/08/11 04:56:28;;;;;;;;;;;22.80;49.10;;;;;;8363092;28;19956;-44
2021/08/11 05:00:29;;;;;;;;;;;22.80;49.10;;;;;;8363160;28;19940;-45
2021/08/11 05:04:29;;;;;;;;;;;22.80;49.10;;;;;;8362734;28;19924;-46
2021/08/11 05:08:30;;;;;;;;;;;22.80;49.10;;;;;;8363225;28;19925;-44
2021/08/11 05:12:31;;;;;;;;;;;22.80;49.10;;;;;;8362192;28;20393;-45
2021/08/11 05:16:31;;;;;;;;;;;22.80;49.20;;;;;;8366305;28;19924;-45
2021/08/11 05:20:31;;;;;;;;;;;22.80;49.10;;;;;;8369912;28;19913;-45
2021/08/11 05:24:32;;;;;;;;;;;22.80;49.10;;;;;;8368478;28;20421;-45
2021/08/11 05:28:32;;;;;;;;;;;22.80;49.10;;;;;;8368914;28;19917;-45
2021/08/11 05:32:33;;;;;;;;;;;22.70;49.10;;;;;;8368532;28;19929;-45
2021/08/11 05:36:33;;;;;;;;;;;22.80;49.10;;;;;;8368833;28;19916;-48
2021/08/11 05:40:34;;;;;;;;;;;22.80;49.10;;;;;;8368567;28;19924;-45
2021/08/11 05:44:34;;;;;;;;;;;22.70;49.10;;;;;;8368253;28;19917;-45
2021/08/11 05:48:35;;;;;;;;;;;22.80;49.10;;;;;;8367776;28;20290;-45
2021/08/11 05:52:35;;;;;;;;;;;22.70;49.10;;;;;;8368361;28;20023;-46
2021/08/11 05:56:36;;;;;;;;;;;22.80;49.20;;;;;;8368232;28;19917;-45
2021/08/11 06:00:36;;;;;;;;;;;22.80;49.10;;;;;;8367319;28;20007;-47
2021/08/11 06:04:36;;;;;;;;;;;22.80;49.10;;;;;;8367871;28;19990;-45
2021/08/11 06:08:37;;;;;;;;;;;22.70;49.10;;;;;;8368183;28;20266;-45
2021/08/11 06:12:37;;;;;;;;;;;22.70;49.10;;;;;;8368080;28;20013;-46
2021/08/11 06:16:38;;;;;;;;;;;22.70;49.10;;;;;;8367425;28;20391;-45
2021/08/11 06:20:38;;;;;;;;;;;22.70;49.10;;;;;;8367456;28;19964;-48
2021/08/11 06:24:39;;;;;;;;;;;22.80;49.10;;;;;;8366917;28;20313;-47
2021/08/11 06:28:39;;;;;;;;;;;22.80;49.10;;;;;;8366764;28;19917;-47
2021/08/11 06:32:40;;;;;;;;;;;22.70;49.10;;;;;;8366766;28;19978;-45
2021/08/11 06:36:41;;;;;;;;;;;22.70;49.10;;;;;;8366510;28;19923;-50
2021/08/11 06:40:43;;;;;;;;;;;22.80;49.20;;;;;;8366766;28;19917;-45
2021/08/11 06:44:43;;;;;;;;;;;22.80;49.10;;;;;;8366461;28;19917;-46
2021/08/11 06:48:44;;;;;;;;;;;22.70;49.10;;;;;;8366644;28;20019;-45
2021/08/11 06:52:44;;;;;;;;;;;22.70;49.10;;;;;;8366198;28;20378;-45
2021/08/11 06:56:45;;;;;;;;;;;22.80;49.10;;;;;;8365687;28;19964;-45
2021/08/11 07:00:45;;;;;;;;;;;22.80;49.10;;;;;;8365892;28;19963;-45
2021/08/11 07:04:46;;;;;;;;;;;22.80;49.10;;;;;;8366526;28;20395;-45
2021/08/11 07:08:46;;;;;;;;;;;22.80;49.00;;;;;;8365364;28;19943;-43
2021/08/11 07:12:47;;;;;;;;;;;22.80;48.90;;;;;;8365438;28;20413;-45
2021/08/11 07:16:48;;;;;;;;;;;22.90;48.90;;;;;;8365210;28;20007;-45
2021/08/11 07:20:49;;;;;;;;;;;22.90;48.80;;;;;;8365618;28;19913;-46
2021/08/11 07:24:49;;;;;;;;;;;23.00;49.50;;;;;;8365110;28;20375;-45
2021/08/11 07:28:50;;;;;;;;;;;23.00;48.80;;;;;;8365083;28;20094;-45
2021/08/11 07:32:50;;;;;;;;;;;23.00;48.70;;;;;;8364383;28;19982;-44
2021/08/11 07:36:51;;;;;;;;;;;22.90;48.70;;;;;;8364785;28;19923;-45
2021/08/11 07:40:51;;;;;;;;;;;22.90;48.70;;;;;;8365257;28;19917;-46
2021/08/11 07:44:52;;;;;;;;;;;22.90;48.80;;;;;;8364707;28;20000;-45
2021/08/11 07:48:53;;;;;;;;;;;22.90;48.90;;;;;;8364796;28;19917;-45
2021/08/11 07:52:53;;;;;;;;;;;22.90;48.90;;;;;;8364340;28;20478;-46
2021/08/11 07:56:54;;;;;;;;;;;22.90;48.90;;;;;;8364568;28;20277;-44
2021/08/11 08:00:54;;;;;;;;;;;22.90;48.90;;;;;;8364131;28;20340;-45
2021/08/11 08:04:55;;;;;;;;;;;22.90;49.00;;;;;;8363817;28;20384;-45
2021/08/11 08:08:55;;;;;;;;;;;22.90;49.00;;;;;;8363293;28;20382;-45
2021/08/11 08:12:56;;;;;;;;;;;22.90;49.00;;;;;;8364760;28;19928;-45
2021/08/11 08:16:56;;;;;;;;;;;22.90;49.10;;;;;;8363692;28;19917;-45
2021/08/11 08:20:56;;;;;;;;;;;22.90;49.00;;;;;;8363235;28;19955;-46
2021/08/11 08:24:57;;;;;;;;;;;22.90;49.10;;;;;;8363626;28;19948;-45
2021/08/11 08:28:57;;;;;;;;;;;22.90;49.10;;;;;;8363547;28;19967;-45
2021/08/11 08:32:58;;;;;;;;;;;22.90;49.10;;;;;;8363788;28;19921;-46
2021/08/11 08:36:58;;;;;;;;;;;23.00;49.20;;;;;;8363739;28;20286;-44
2021/08/11 08:40:59;;;;;;;;;;;23.00;49.20;;;;;;8363446;28;19917;-45
2021/08/11 08:45:00;;;;;;;;;;;23.00;49.20;;;;;;8362860;28;19963;-44
2021/08/11 08:49:19;;;;;;;;;;;23.00;49.20;;;;;;8339559;28;19917;-44
2021/08/11 08:53:21;;;;;;;;;;;23.00;49.20;;;;;;8369659;28;19924;-44
2021/08/11 08:57:21;;;;;;;;;;;23.00;49.20;;;;;;8369466;28;19970;-45
2021/08/11 09:01:22;;;;;;;;;;;23.10;49.20;;;;;;8369690;28;19917;-44
2021/08/11 09:05:22;;;;;;;;;;;23.10;49.20;;;;;;8369567;28;19975;-45
2021/08/11 09:09:32;;;;;;;;;;;23.10;49.20;;;;;;8369840;28;19928;-44
2021/08/11 09:13:32;;;;;;;;;;;23.10;49.20;;;;;;8369286;28;19940;-45
2021/08/11 09:17:33;;;;;;;;;;;23.10;49.20;;;;;;8369208;28;19921;-45
2021/08/11 09:21:33;;;;;;;;;;;23.10;49.20;;;;;;8368739;28;19921;-45
2021/08/11 09:25:35;;;;;;;;;;;23.10;49.30;;;;;;8369880;28;19972;-45
2021/08/11 09:29:36;;;;;;;;;;;23.10;49.30;;;;;;8368864;28;19920;-46
2021/08/11 09:33:36;;;;;;;;;;;23.20;49.20;;;;;;8367916;28;20407;-46
2021/08/11 09:37:38;;;;;;;;;;;23.20;49.20;;;;;;8368521;28;20373;-45
2021/08/11 09:41:56;;;;;;;;;;;23.20;49.20;;;;;;8368669;28;19924;-46
2021/08/11 09:45:56;;;;;;;;;;;23.20;49.20;;;;;;8345994;28;19921;-44
2021/08/11 09:50:07;;;;;;;;;;;23.20;49.20;;;;;;8368303;28;19977;-44
2021/08/11 09:54:08;;;;;;;;;;;23.20;49.20;;;;;;8367727;28;19920;-44
2021/08/11 09:58:17;;;;;;;;;;;23.30;49.20;;;;;;8368181;28;19919;-45
2021/08/11 10:02:18;;;;;;;;;;;23.30;49.70;;;;;;8368009;28;19995;-45
2021/08/11 10:06:26;;;;;;;;;;;23.30;49.20;;;;;;8368033;28;19917;-44
2021/08/11 10:10:26;;;;;;;;;;;23.30;49.10;;;;;;8367842;28;19925;-44
2021/08/11 10:14:30;;;;;;;;;;;23.30;49.20;;;;;;8367706;28;19958;-46
2021/08/11 10:18:32;;;;;;;;;;;23.30;49.10;;;;;;8367035;28;19935;-44
2021/08/11 10:22:33;;;;;;;;;;;23.30;49.10;;;;;;8367970;28;19919;-44
2021/08/11 10:26:33;;;;;;;;;;;23.40;49.10;;;;;;8367204;28;19928;-44
2021/08/11 10:30:34;;;;;;;;;;;23.40;49.10;;;;;;8366590;28;19932;-45
2021/08/11 10:34:35;;;;;;;;;;;23.40;49.10;;;;;;8366911;28;19917;-45
2021/08/11 10:38:36;;;;;;;;;;;23.40;49.00;;;;;;8367756;28;19935;-44
2021/08/11 10:42:36;;;;;;;;;;;23.40;49.00;;;;;;8366464;28;20340;-45
2021/08/11 10:46:37;;;;;;;;;;;23.50;49.00;;;;;;8366470;28;19948;-45
2021/08/11 10:50:41;;;;;;;;;;;23.50;49.00;;;;;;8366644;28;19994;-46
2021/08/11 10:54:53;;;;;;;;;;;23.60;49.00;;;;;;8365998;28;19927;-44
2021/08/11 10:58:54;;;;;;;;;;;23.60;49.00;;;;;;8366784;28;20019;-45
2021/08/11 11:02:55;;;;;;;;;;;23.60;49.00;;;;;;8365672;28;19924;-44
2021/08/11 11:07:11;;;;;;;;;;;23.60;49.00;;;;;;8366088;28;19927;-44
2021/08/11 11:11:26;;;;;;;;;;;23.60;49.00;;;;;;8365799;28;19971;-44
2021/08/11 11:15:49;;;;;;;;;;;23.60;49.00;;;;;;8364739;28;19917;-45
2021/08/11 11:20:08;;;;;;;;;;;23.60;49.00;;;;;;8366406;28;19943;-43
2021/08/11 11:24:29;;;;;;;;;;;23.70;49.10;;;;;;8365114;28;20000;-44
2021/08/11 11:28:48;;;;;;;;;;;23.70;49.10;;;;;;8365464;28;19924;-44
2021/08/11 11:32:48;;;;;;;;;;;23.70;49.00;;;;;;8364711;28;19931;-44
2021/08/11 11:36:54;;;;;;;;;;;23.70;49.00;;;;;;8365156;28;20004;-43
2021/08/11 11:40:55;;;;;;;;;;;23.70;49.00;;;;;;8365977;28;19913;-43
2021/08/11 11:45:00;;;;;;;;;;;23.70;49.00;;;;;;8364438;28;19940;-49
2021/08/11 11:49:16;;;;;;;;;;;23.70;49.40;;;;;;8364885;28;20298;-45
2021/08/11 11:53:21;;;;;;;;;;;23.80;49.00;;;;;;8364638;28;20412;-45
2021/08/11 11:57:21;;;;;;;;;;;23.80;48.90;;;;;;8363946;28;19917;-46
2021/08/11 12:01:22;;;;;;;;;;;23.80;48.90;;;;;;8365021;28;19913;-44
2021/08/11 12:05:23;;;;;;;;;;;23.80;48.90;;;;;;8364361;28;19917;-44
2021/08/11 12:09:24;;;;;;;;;;;23.80;48.90;;;;;;8364046;28;20182;-45
2021/08/11 12:13:25;;;;;;;;;;;23.80;48.80;;;;;;8363500;28;19928;-44
2021/08/11 12:17:29;;;;;;;;;;;23.90;48.90;;;;;;8362933;28;19924;-44
2021/08/11 12:21:29;;;;;;;;;;;23.90;48.90;;;;;;8363769;28;19948;-45
2021/08/11 12:25:31;;;;;;;;;;;23.90;48.90;;;;;;8362865;28;19921;-44
2021/08/11 12:29:31;;;;;;;;;;;24.00;48.80;;;;;;8363475;28;19912;-44
2021/08/11 12:33:33;;;;;;;;;;;24.00;48.80;;;;;;8362912;28;20353;-45
2021/08/11 12:37:42;;;;;;;;;;;24.00;48.80;;;;;;8364428;28;19920;-44
2021/08/11 12:41:43;;;;;;;;;;;24.00;48.80;;;;;;8363448;28;19921;-44
2021/08/11 12:45:51;;;;;;;;;;;24.00;48.80;;;;;;8362808;28;20055;-44
2021/08/11 12:49:52;;;;;;;;;;;24.00;48.90;;;;;;8363308;28;19913;-44
2021/08/11 12:54:05;;;;;;;;;;;24.00;48.90;;;;;;8363070;28;20382;-45
2021/08/11 12:58:06;;;;;;;;;;;24.10;48.90;;;;;;8364082;28;19923;-45
2021/08/11 13:02:17;;;;;;;;;;;24.10;48.80;;;;;;8363277;28;19916;-44
2021/08/11 13:06:18;;;;;;;;;;;24.10;48.80;;;;;;8362632;28;19923;-44
2021/08/11 13:10:19;;;;;;;;;;;24.10;48.80;;;;;;8362467;28;19925;-44
2021/08/11 13:14:38;;;;;;;;;;;24.10;48.70;;;;;;8363344;28;20010;-45
2021/08/11 13:18:39;;;;;;;;;;;24.20;48.80;;;;;;8362667;28;19916;-44
2021/08/11 13:22:41;;;;;;;;;;;24.20;48.70;;;;;;8362577;28;19916;-44
2021/08/11 13:26:41;;;;;;;;;;;24.20;48.70;;;;;;8362766;28;19924;-44
2021/08/11 13:30:42;;;;;;;;;;;24.20;48.70;;;;;;8361994;28;19932;-44
2021/08/11 13:34:43;;;;;;;;;;;24.30;49.20;;;;;;8363238;28;19912;-44
2021/08/11 13:38:43;;;;;;;;;;;24.30;48.60;;;;;;8368052;28;20007;-44
2021/08/11 13:42:44;;;;;;;;;;;24.30;48.60;;;;;;8368160;28;19921;-45
2021/08/11 13:46:44;;;;;;;;;;;24.30;48.60;;;;;;8368466;28;19966;-44
2021/08/11 13:50:45;;;;;;;;;;;24.30;48.50;;;;;;8369036;28;19936;-45
2021/08/11 13:54:45;;;;;;;;;;;24.30;48.40;;;;;;8368247;28;19920;-44
2021/08/11 13:58:46;;;;;;;;;;;24.40;48.50;;;;;;8368034;28;20292;-44
2021/08/11 14:02:46;;;;;;;;;;;24.40;48.50;;;;;;8367509;28;19921;-44
2021/08/11 14:06:47;;;;;;;;;;;24.40;48.50;;;;;;8368077;28;20354;-44
2021/08/11 14:10:47;;;;;;;;;;;24.40;48.40;;;;;;8368709;28;19979;-44
2021/08/11 14:14:47;;;;;;;;;;;24.40;48.40;;;;;;8366390;28;19912;-44
2021/08/11 14:18:48;;;;;;;;;;;24.50;48.50;;;;;;8367499;28;19956;-44
2021/08/11 14:22:48;;;;;;;;;;;24.40;48.40;;;;;;8367394;28;20259;-44
2021/08/11 14:26:49;;;;;;;;;;;24.50;48.40;;;;;;8367539;28;19917;-44
2021/08/11 14:30:49;;;;;;;;;;;24.50;48.40;;;;;;8367231;28;19925;-44
2021/08/11 14:34:50;;;;;;;;;;;24.50;48.30;;;;;;8367055;28;20413;-44
2021/08/11 14:38:50;;;;;;;;;;;24.50;48.30;;;;;;8366818;28;19952;-44
2021/08/11 14:42:51;;;;;;;;;;;24.50;48.30;;;;;;8367831;28;19919;-45
2021/08/11 14:46:51;;;;;;;;;;;24.50;48.30;;;;;;8366490;28;19944;-44
2021/08/11 14:50:52;;;;;;;;;;;24.60;48.30;;;;;;8365577;28;19932;-44
2021/08/11 14:54:52;;;;;;;;;;;24.60;48.30;;;;;;8366747;28;19924;-44
2021/08/11 14:58:52;;;;;;;;;;;24.60;48.30;;;;;;8366379;28;20366;-42
2021/08/11 15:02:53;;;;;;;;;;;24.60;48.30;;;;;;8366864;28;19917;-44
2021/08/11 15:06:53;;;;;;;;;;;24.60;48.10;;;;;;8366112;28;19928;-45
2021/08/11 15:10:54;;;;;;;;;;;24.60;48.10;;;;;;8366306;28;19929;-44
2021/08/11 15:14:54;;;;;;;;;;;24.60;48.10;;;;;;8364039;28;19921;-44
2021/08/11 15:18:55;;;;;;;;;;;24.60;48.20;;;;;;8366447;28;19912;-44
2021/08/11 15:22:56;;;;;;;;;;;24.60;48.10;;;;;;8365727;28;20373;-45
2021/08/11 15:26:56;;;;;;;;;;;24.70;48.20;;;;;;8365025;28;19948;-44
2021/08/11 15:30:56;;;;;;;;;;;24.70;48.20;;;;;;8365276;28;20321;-44
2021/08/11 15:34:57;;;;;;;;;;;24.70;48.20;;;;;;8365956;28;19921;-44
2021/08/11 15:38:57;;;;;;;;;;;24.60;48.20;;;;;;8364576;28;19916;-44
2021/08/11 15:42:58;;;;;;;;;;;24.70;48.20;;;;;;8364976;28;19939;-45
2021/08/11 15:46:58;;;;;;;;;;;24.70;48.20;;;;;;8364760;28;20286;-46
2021/08/11 15:50:59;;;;;;;;;;;24.70;48.20;;;;;;8364223;28;19932;-45
2021/08/11 15:54:59;;;;;;;;;;;24.70;48.20;;;;;;8365650;28;19913;-44
2021/08/11 15:59:02;;;;;;;;;;;24.70;48.10;;;;;;8364190;28;19992;-44
2021/08/11 16:03:02;;;;;;;;;;;24.70;48.20;;;;;;8363906;28;19924;-45
2021/08/11 16:07:03;;;;;;;;;;;24.70;48.20;;;;;;8364227;28;20247;-44
2021/08/11 16:11:04;;;;;;;;;;;24.70;48.20;;;;;;8364919;28;20420;-45
2021/08/11 16:15:05;;;;;;;;;;;24.70;48.20;;;;;;8363669;28;19921;-45
2021/08/11 16:19:05;;;;;;;;;;;24.80;48.30;;;;;;8364155;28;19916;-47
2021/08/11 16:23:06;;;;;;;;;;;24.80;48.20;;;;;;8363726;28;19920;-44
2021/08/11 16:27:06;;;;;;;;;;;24.80;48.20;;;;;;8363713;28;19921;-45
2021/08/11 16:31:07;;;;;;;;;;;24.80;48.30;;;;;;8364236;28;19975;-45
2021/08/11 16:35:08;;;;;;;;;;;24.80;48.20;;;;;;8363380;28;20393;-45
2021/08/11 16:39:08;;;;;;;;;;;24.80;48.20;;;;;;8363038;28;19916;-44
2021/08/11 16:43:08;;;;;;;;;;;24.80;48.20;;;;;;8363388;28;20362;-46
2021/08/11 16:47:09;;;;;;;;;;;24.80;48.20;;;;;;8364154;28;19951;-45
2021/08/11 16:51:09;;;;;;;;;;;24.80;48.20;;;;;;8362641;28;19932;-45
2021/08/11 16:55:10;;;;;;;;;;;24.80;48.20;;;;;;8363103;28;19997;-45
2021/08/11 16:59:11;;;;;;;;;;;24.80;48.20;;;;;;8363053;28;19917;-45
2021/08/11 17:03:11;;;;;;;;;;;24.80;48.20;;;;;;8363596;28;19919;-42
2021/08/11 17:07:12;;;;;;;;;;;24.80;48.20;;;;;;8363109;28;19921;-44
2021/08/11 17:11:12;;;;;;;;;;;24.80;48.20;;;;;;8364399;28;20453;-43
2021/08/11 17:15:13;;;;;;;;;;;24.80;48.20;;;;;;8369281;28;20000;-42
2021/08/11 17:19:13;;;;;;;;;;;24.80;48.20;;;;;;8369279;28;20318;-44
2021/08/11 17:23:14;;;;;;;;;;;24.80;48.20;;;;;;8370192;28;19940;-43
2021/08/11 17:27:14;;;;;;;;;;;24.80;48.20;;;;;;8368765;28;19961;-43
2021/08/11 17:31:14;;;;;;;;;;;24.80;48.30;;;;;;8369053;28;19933;-43
2021/08/11 17:35:15;;;;;;;;;;;24.80;48.20;;;;;;8369004;28;19917;-44
2021/08/11 17:39:16;;;;;;;;;;;24.80;48.20;;;;;;8369165;28;19995;-43
2021/08/11 17:43:16;;;;;;;;;;;24.80;48.20;;;;;;8368743;28;20340;-44
2021/08/11 17:47:17;;;;;;;;;;;24.80;48.20;;;;;;8368694;28;20282;-43
2021/08/11 17:51:18;;;;;;;;;;;24.80;48.20;;;;;;8367875;28;20412;-43
2021/08/11 17:55:19;;;;;;;;;;;24.80;48.20;;;;;;8368923;28;19919;-43
2021/08/11 17:59:19;;;;;;;;;;;24.80;48.20;;;;;;8368091;28;19924;-43
2021/08/11 18:03:20;;;;;;;;;;;24.80;48.20;;;;;;8367611;28;20281;-44
2021/08/11 18:07:20;;;;;;;;;;;24.80;48.20;;;;;;8367745;28;20332;-43
2021/08/11 18:11:21;;;;;;;;;;;24.80;48.20;;;;;;8367731;28;19960;-44
2021/08/11 18:15:21;;;;;;;;;;;24.80;48.20;;;;;;8367904;28;19913;-44
2021/08/11 18:19:22;;;;;;;;;;;24.80;48.20;;;;;;8367484;28;20007;-45
2021/08/11 18:23:22;;;;;;;;;;;24.80;48.20;;;;;;8365899;28;20301;-44
2021/08/11 18:27:23;;;;;;;;;;;24.80;48.30;;;;;;8366772;28;19924;-43
2021/08/11 18:31:23;;;;;;;;;;;24.80;48.30;;;;;;8367793;28;19921;-44
2021/08/11 18:35:24;;;;;;;;;;;24.80;48.40;;;;;;8367122;28;20313;-45
2021/08/11 18:39:25;;;;;;;;;;;24.80;48.50;;;;;;8366475;28;19928;-46
2021/08/11 18:43:25;;;;;;;;;;;24.80;48.40;;;;;;8367024;28;20003;-46
2021/08/11 18:47:25;;;;;;;;;;;24.80;48.50;;;;;;8367514;28;19920;-43
2021/08/11 18:51:26;;;;;;;;;;;24.80;48.50;;;;;;8365990;28;19932;-45
2021/08/11 18:55:26;;;;;;;;;;;24.80;48.60;;;;;;8366348;28;19924;-43
2021/08/11 18:59:27;;;;;;;;;;;24.80;48.70;;;;;;8366500;28;19991;-45
2021/08/11 19:03:28;;;;;;;;;;;24.80;48.90;;;;;;8365639;28;19921;-43
2021/08/11 19:07:28;;;;;;;;;;;24.80;48.90;;;;;;8366912;28;19921;-44
2021/08/11 19:11:29;;;;;;;;;;;24.80;49.10;;;;;;8365873;28;19932;-43
2021/08/11 19:15:29;;;;;;;;;;;24.80;49.20;;;;;;8365202;28;20374;-43
2021/08/11 19:19:30;;;;;;;;;;;24.80;49.30;;;;;;8365740;28;20400;-47
2021/08/11 19:23:30;;;;;;;;;;;24.80;49.20;;;;;;8366383;28;19917;-43
2021/08/11 19:27:31;;;;;;;;;;;24.70;49.00;;;;;;8365039;28;19966;-43
2021/08/11 19:31:31;;;;;;;;;;;24.70;48.90;;;;;;8365159;28;19924;-44
2021/08/11 19:35:32;;;;;;;;;;;24.70;49.30;;;;;;8364795;28;19960;-44
2021/08/11 19:39:33;;;;;;;;;;;24.70;48.80;;;;;;8364887;28;20003;-44
2021/08/11 19:43:34;;;;;;;;;;;24.70;48.70;;;;;;8365388;28;20370;-43
2021/08/11 19:47:35;;;;;;;;;;;24.70;48.70;;;;;;8364766;28;19927;-43
2021/08/11 19:51:35;;;;;;;;;;;24.70;48.70;;;;;;8364054;28;19925;-45
2021/08/11 19:55:36;;;;;;;;;;;24.70;48.60;;;;;;8364525;28;20031;-43
2021/08/11 19:59:36;;;;;;;;;;;24.70;48.70;;;;;;8365064;28;19913;-43
2021/08/11 20:03:37;;;;;;;;;;;24.70;48.60;;;;;;8363816;28;20011;-44
2021/08/11 20:07:37;;;;;;;;;;;24.70;48.60;;;;;;8364034;28;19928;-43
2021/08/11 20:11:40;;;;;;;;;;;24.80;48.50;;;;;;8364067;28;20398;-44
2021/08/11 20:15:40;;;;;;;;;;;24.70;48.50;;;;;;8364175;28;20278;-43
2021/08/11 20:19:42;;;;;;;;;;;24.70;48.40;;;;;;8363327;28;21307;-43
2021/08/11 20:23:43;;;;;;;;;;;24.80;48.50;;;;;;8363985;28;19912;-43
2021/08/11 20:27:45;;;;;;;;;;;24.70;48.40;;;;;;8363055;28;20289;-44
2021/08/11 20:31:46;;;;;;;;;;;24.70;48.40;;;;;;8363743;28;19978;-44
2021/08/11 20:35:46;;;;;;;;;;;24.80;48.40;;;;;;8363829;28;19923;-43
2021/08/11 20:39:46;;;;;;;;;;;24.70;48.40;;;;;;8363385;28;19923;-43
2021/08/11 20:43:47;;;;;;;;;;;24.80;48.40;;;;;;8363365;28;20374;-45
2021/08/11 20:47:47;;;;;;;;;;;24.80;48.40;;;;;;8362165;28;19964;-44
2021/08/11 20:51:48;;;;;;;;;;;24.70;48.40;;;;;;8364220;28;19924;-45
2021/08/11 20:55:51;;;;;;;;;;;24.70;48.40;;;;;;8363213;28;19924;-44
2021/08/11 20:59:52;;;;;;;;;;;24.70;48.40;;;;;;8362756;28;19919;-44
2021/08/11 21:03:52;;;;;;;;;;;24.70;48.40;;;;;;8363028;28;19924;-44
2021/08/11 21:07:53;;;;;;;;;;;24.70;48.50;;;;;;8363455;28;19931;-44
2021/08/11 21:11:53;;;;;;;;;;;24.70;48.50;;;;;;8362462;28;19947;-43
2021/08/11 21:15:54;;;;;;;;;;;24.70;48.50;;;;;;8363307;28;20282;-43
2021/08/11 21:19:54;;;;;;;;;;;24.70;48.50;;;;;;8362798;28;20381;-45
2021/08/11 21:23:55;;;;;;;;;;;24.70;48.50;;;;;;8362170;28;19928;-43
2021/08/11 21:27:55;;;;;;;;;;;24.70;48.60;;;;;;8363338;28;19919;-44
2021/08/11 21:31:56;;;;;;;;;;;24.70;48.60;;;;;;8362586;28;19924;-47
2021/08/11 21:35:56;;;;;;;;;;;24.60;48.60;;;;;;8361966;28;19917;-44
2021/08/11 21:39:57;;;;;;;;;;;24.60;48.60;;;;;;8362751;28;19917;-44
2021/08/11 21:43:57;;;;;;;;;;;24.60;48.60;;;;;;8363010;28;19919;-43
2021/08/11 21:47:57;;;;;;;;;;;24.60;49.10;;;;;;8362192;28;19924;-45
2021/08/11 21:51:58;;;;;;;;;;;24.60;48.60;;;;;;8362134;28;19925;-44
2021/08/11 21:55:59;;;;;;;;;;;24.60;48.60;;;;;;8362218;28;20013;-44
2021/08/11 22:00:00;;;;;;;;;;;24.60;48.60;;;;;;8367715;28;19955;-44
2021/08/11 22:04:01;;;;;;;;;;;24.60;48.70;;;;;;8367696;28;20385;-44
2021/08/11 22:08:02;;;;;;;;;;;24.60;48.70;;;;;;8368407;28;19956;-43
2021/08/11 22:12:03;;;;;;;;;;;24.60;48.60;;;;;;8367291;28;19925;-45
2021/08/11 22:16:04;;;;;;;;;;;24.60;48.60;;;;;;8367941;28;20008;-43
2021/08/11 22:20:06;;;;;;;;;;;24.60;48.60;;;;;;8368486;28;20289;-43
2021/08/11 22:24:06;;;;;;;;;;;24.60;48.60;;;;;;8366814;28;19924;-43
2021/08/11 22:28:06;;;;;;;;;;;24.60;48.60;;;;;;8367516;28;19987;-46
2021/08/11 22:32:07;;;;;;;;;;;24.50;48.50;;;;;;8367028;28;19925;-45
2021/08/11 22:36:07;;;;;;;;;;;24.50;48.50;;;;;;8367817;28;20354;-47
2021/08/11 22:40:08;;;;;;;;;;;24.50;48.50;;;;;;8366917;28;19917;-45
2021/08/11 22:44:09;;;;;;;;;;;24.50;48.50;;;;;;8366797;28;19924;-44
2021/08/11 22:48:09;;;;;;;;;;;24.50;48.60;;;;;;8366449;28;19970;-44
2021/08/11 22:52:10;;;;;;;;;;;24.50;48.50;;;;;;8366591;28;19921;-45
2021/08/11 22:56:10;;;;;;;;;;;24.50;48.50;;;;;;8367348;28;20266;-47
2021/08/11 23:00:11;;;;;;;;;;;24.50;48.60;;;;;;8365986;28;20408;-45
2021/08/11 23:04:13;;;;;;;;;;;24.50;48.50;;;;;;8366156;28;19917;-46
2021/08/11 23:08:13;;;;;;;;;;;24.50;48.50;;;;;;8365226;28;19920;-44
2021/08/11 23:12:13;;;;;;;;;;;24.50;48.60;;;;;;8366120;28;19925;-44
2021/08/11 23:16:14;;;;;;;;;;;24.50;48.50;;;;;;8365635;28;19923;-44
2021/08/11 23:20:14;;;;;;;;;;;24.50;48.50;;;;;;8365683;28;19948;-44
2021/08/11 23:24:15;;;;;;;;;;;24.50;48.60;;;;;;8365159;28;20362;-45